Time;durP1;ratioP1;P1;durP2;ratioP2;P2;SDS_P1;SDS_P2;PMS_P1;PMS_P2;Temp;Humidity;BMP_temperature;BMP_pressure;BME280_temperature;BME280_humidity;BME280_pressure;Samples;Min_cycle;Max_cycle;Signal;HPM_P1;HPM_P2
2024/01/21 00:01:24;;;;;;;13.48;8.27;;;;;;;;;;6122188;23;20140;-82
2024/01/21 00:03:51;;;;;;;13.98;8.55;;;;;;;;;;6120504;23;20017;-82
2024/01/21 00:06:18;;;;;;;11.52;8.52;;;;;;;;;;6123549;23;20490;-82
2024/01/21 00:08:48;;;;;;;13.40;9.10;;;;;;;;;;6096595;23;20028;-82
2024/01/21 00:11:19;;;;;;;13.25;8.68;;;;;;;;;;6121825;23;20017;-82
2024/01/21 00:13:46;;;;;;;12.95;8.48;;;;;;;;;;6119784;23;20009;-82
2024/01/21 00:16:13;;;;;;;13.25;8.00;;;;;;;;;;6145709;23;20020;-82
2024/01/21 00:18:41;;;;;;;12.70;8.80;;;;;;;;;;6120065;23;20092;-81
2024/01/21 00:21:08;;;;;;;12.85;8.13;;;;;;;;;;6146943;23;20547;-81
2024/01/21 00:23:36;;;;;;;;;;;;;;;;;;6143777;23;20020;-82
2024/01/21 00:26:07;;;;;;;12.73;8.68;;;;;;;;;;6146869;23;19939;-82
2024/01/21 00:28:42;;;;;;;14.63;8.60;;;;;;;;;;6123585;23;20053;-82
2024/01/21 00:31:10;;;;;;;11.07;7.47;;;;;;;;;;6098565;23;20453;-82
2024/01/21 00:34:00;;;;;;;12.73;8.63;;;;;;;;;;6120159;23;20014;-82
2024/01/21 00:36:35;;;;;;;12.95;7.88;;;;;;;;;;6098875;23;20017;-82
2024/01/21 00:39:06;;;;;;;10.65;7.57;;;;;;;;;;6096701;23;20023;-82
2024/01/21 00:41:42;;;;;;;10.52;7.80;;;;;;;;;;6124924;23;20021;-82
2024/01/21 00:44:09;;;;;;;13.38;8.10;;;;;;;;;;6098484;23;20025;-81
2024/01/21 00:46:39;;;;;;;14.30;7.60;;;;;;;;;;6146502;23;20449;-82
2024/01/21 00:49:07;;;;;;;12.35;7.00;;;;;;;;;;6097863;23;20092;-81
2024/01/21 00:51:34;;;;;;;12.52;7.53;;;;;;;;;;6120854;23;20468;-81
2024/01/21 00:54:01;;;;;;;12.02;7.07;;;;;;;;;;6097803;23;20815;-82
2024/01/21 00:56:41;;;;;;;11.80;7.40;;;;;;;;;;6097709;23;20013;-81
2024/01/21 00:59:09;;;;;;;11.63;7.25;;;;;;;;;;6147366;23;20112;-82
2024/01/21 01:01:38;;;;;;;11.10;7.20;;;;;;;;;;6143883;23;20017;-82
2024/01/21 01:04:05;;;;;;;12.23;6.55;;;;;;;;;;6122396;23;20454;-82
2024/01/21 01:06:33;;;;;;;10.90;6.73;;;;;;;;;;6121718;23;20512;-82
2024/01/21 01:09:04;;;;;;;11.45;6.53;;;;;;;;;;6098573;23;20808;-82
2024/01/21 01:11:33;;;;;;;11.00;6.28;;;;;;;;;;6099074;23;20024;-82
2024/01/21 01:14:00;;;;;;;9.07;6.28;;;;;;;;;;6121579;23;20039;-82
2024/01/21 01:16:28;;;;;;;10.88;6.22;;;;;;;;;;6123496;23;20406;-82
2024/01/21 01:18:59;;;;;;;9.82;6.05;;;;;;;;;;6094809;23;20048;-82
2024/01/21 01:21:26;;;;;;;8.55;5.85;;;;;;;;;;6124710;23;20083;-82
2024/01/21 01:23:54;;;;;;;10.65;6.20;;;;;;;;;;6121576;23;20020;-82
2024/01/21 01:26:36;;;;;;;9.97;6.60;;;;;;;;;;6123835;23;20025;-83
2024/01/21 01:29:05;;;;;;;11.07;6.15;;;;;;;;;;6126497;23;20260;-82
2024/01/21 01:31:33;;;;;;;9.87;6.63;;;;;;;;;;6122619;23;20021;-82
2024/01/21 01:34:03;;;;;;;10.70;6.18;;;;;;;;;;6123688;23;20252;-82
2024/01/21 01:36:38;;;;;;;7.90;5.28;;;;;;;;;;6098686;23;20067;-82
2024/01/21 01:39:17;;;;;;;8.57;5.35;;;;;;;;;;6126943;23;20342;-82
2024/01/21 01:41:46;;;;;;;9.15;5.53;;;;;;;;;;6147864;23;20021;-82
2024/01/21 01:44:14;;;;;;;9.38;4.80;;;;;;;;;;6101778;23;20021;-82
2024/01/21 01:46:42;;;;;;;6.40;4.90;;;;;;;;;;6122562;23;20025;-82
2024/01/21 01:49:12;;;;;;;8.07;4.95;;;;;;;;;;6124783;23;20020;-82
2024/01/21 01:51:39;;;;;;;7.47;4.15;;;;;;;;;;6122786;23;20029;-82
2024/01/21 01:54:08;;;;;;;5.93;4.00;;;;;;;;;;6099219;23;20096;-82
2024/01/21 01:56:35;;;;;;;7.57;4.60;;;;;;;;;;6146294;23;20107;-82
2024/01/21 01:59:03;;;;;;;5.70;4.43;;;;;;;;;;6148831;23;20021;-82
2024/01/21 02:01:30;;;;;;;;;;;;;;;;;;6100137;23;20013;-82
2024/01/21 02:03:58;;;;;;;4.93;3.53;;;;;;;;;;6171518;23;20661;-82
2024/01/21 02:06:25;;;;;;;6.10;3.70;;;;;;;;;;6144716;23;20023;-82
2024/01/21 02:08:52;;;;;;;4.38;3.63;;;;;;;;;;6118404;23;20025;-82
2024/01/21 02:11:19;;;;;;;5.90;3.85;;;;;;;;;;6147257;23;20393;-82
2024/01/21 02:13:46;;;;;;;7.05;3.78;;;;;;;;;;6095537;23;20060;-82
2024/01/21 02:16:14;;;;;;;5.68;3.55;;;;;;;;;;6122781;23;20456;-82
2024/01/21 02:18:41;;;;;;;5.70;3.40;;;;;;;;;;6095480;23;20023;-82
2024/01/21 02:21:08;;;;;;;4.38;3.33;;;;;;;;;;6147723;23;20021;-82
2024/01/21 02:23:35;;;;;;;5.95;3.35;;;;;;;;;;6119627;23;20013;-82
2024/01/21 02:26:02;;;;;;;4.88;3.17;;;;;;;;;;6122739;23;20063;-82
2024/01/21 02:28:30;;;;;;;4.40;2.97;;;;;;;;;;6122045;23;20100;-82
2024/01/21 02:30:57;;;;;;;5.55;3.08;;;;;;;;;;6096930;23;20101;-82
2024/01/21 02:33:26;;;;;;;6.65;2.83;;;;;;;;;;6098693;23;20028;-82
2024/01/21 02:35:53;;;;;;;4.05;2.88;;;;;;;;;;6119931;23;20425;-82
2024/01/21 02:38:20;;;;;;;6.28;3.80;;;;;;;;;;6122506;23;20088;-82
2024/01/21 02:40:48;;;;;;;6.28;3.40;;;;;;;;;;6120846;23;20556;-82
2024/01/21 02:43:15;;;;;;;2.70;2.17;;;;;;;;;;6146527;23;20025;-83
2024/01/21 02:45:43;;;;;;;4.68;3.10;;;;;;;;;;6171279;23;20052;-82
2024/01/21 02:48:10;;;;;;;4.67;2.97;;;;;;;;;;6122205;23;20028;-82
2024/01/21 02:50:37;;;;;;;3.30;2.17;;;;;;;;;;6120460;23;20295;-82
2024/01/21 02:53:04;;;;;;;3.40;2.42;;;;;;;;;;6147523;23;20032;-82
2024/01/21 02:55:31;;;;;;;3.20;2.40;;;;;;;;;;6174282;23;20067;-82
2024/01/21 02:58:02;;;;;;;3.97;2.50;;;;;;;;;;6173481;23;20386;-82
2024/01/21 03:00:29;;;;;;;3.97;2.83;;;;;;;;;;6175219;23;20017;-82
2024/01/21 03:02:56;;;;;;;2.90;2.10;;;;;;;;;;6144729;23;20016;-82
2024/01/21 03:05:24;;;;;;;2.67;2.03;;;;;;;;;;6148454;23;20021;-82
2024/01/21 03:07:51;;;;;;;2.90;2.03;;;;;;;;;;6170595;23;20025;-82
2024/01/21 03:10:18;;;;;;;4.07;2.05;;;;;;;;;;6174885;23;20260;-82
2024/01/21 03:12:45;;;;;;;3.28;2.10;;;;;;;;;;6145472;23;20446;-82
2024/01/21 03:15:13;;;;;;;3.72;2.38;;;;;;;;;;6175253;23;20013;-82
2024/01/21 03:17:40;;;;;;;3.28;2.15;;;;;;;;;;6170192;23;20021;-83
2024/01/21 03:20:08;;;;;;;3.50;2.35;;;;;;;;;;6146373;23;20024;-82
2024/01/21 03:22:35;;;;;;;2.38;1.92;;;;;;;;;;6096594;23;20024;-82
2024/01/21 03:25:02;;;;;;;5.10;2.40;;;;;;;;;;6123346;23;20023;-83
2024/01/21 03:27:29;;;;;;;3.25;1.95;;;;;;;;;;6121728;23;20009;-82
2024/01/21 03:29:56;;;;;;;3.53;2.10;;;;;;;;;;6170598;23;20019;-82
2024/01/21 03:32:23;;;;;;;4.07;2.00;;;;;;;;;;6147387;23;20025;-82
2024/01/21 03:34:52;;;;;;;2.10;1.90;;;;;;;;;;6171849;23;20104;-82
2024/01/21 03:37:19;;;;;;;2.85;1.80;;;;;;;;;;6144940;23;20021;-82
2024/01/21 03:39:48;;;;;;;2.87;1.93;;;;;;;;;;6120770;23;20072;-82
2024/01/21 03:42:15;;;;;;;3.00;2.10;;;;;;;;;;6173114;23;20517;-82
2024/01/21 03:44:42;;;;;;;3.25;2.13;;;;;;;;;;6144218;23;20043;-82
2024/01/21 03:47:10;;;;;;;3.38;1.80;;;;;;;;;;6098097;23;20112;-83
2024/01/21 03:49:37;;;;;;;5.53;1.90;;;;;;;;;;6094975;23;20020;-82
2024/01/21 03:52:04;;;;;;;1.95;1.70;;;;;;;;;;6122571;23;20021;-82
2024/01/21 03:54:32;;;;;;;3.85;1.70;;;;;;;;;;6097959;23;20017;-83
2024/01/21 03:56:59;;;;;;;4.53;2.13;;;;;;;;;;6121963;23;20184;-82
2024/01/21 03:59:26;;;;;;;3.15;1.67;;;;;;;;;;6099445;23;20692;-82
2024/01/21 04:01:54;;;;;;;3.97;1.90;;;;;;;;;;6144566;23;20025;-82
2024/01/21 04:04:21;;;;;;;3.35;1.63;;;;;;;;;;6122214;23;20128;-82
2024/01/21 04:06:48;;;;;;;2.25;1.83;;;;;;;;;;6095993;23;20095;-83
2024/01/21 04:09:22;;;;;;;2.53;2.30;;;;;;;;;;6098995;23;20021;-82
2024/01/21 04:11:50;;;;;;;4.03;1.98;;;;;;;;;;6098942;23;20418;-82
2024/01/21 04:14:17;;;;;;;3.47;2.00;;;;;;;;;;6101069;23;20013;-82
2024/01/21 04:16:44;;;;;;;2.17;1.50;;;;;;;;;;6097445;23;20060;-82
2024/01/21 04:19:12;;;;;;;3.63;2.05;;;;;;;;;;6100148;23;20075;-82
2024/01/21 04:21:39;;;;;;;3.33;2.08;;;;;;;;;;6119649;23;20035;-83
2024/01/21 04:24:07;;;;;;;2.28;1.60;;;;;;;;;;6097264;23;20095;-82
2024/01/21 04:26:34;;;;;;;3.78;1.80;;;;;;;;;;6146274;23;20021;-82
2024/01/21 04:29:01;;;;;;;2.63;1.95;;;;;;;;;;6122280;23;20027;-83
2024/01/21 04:31:28;;;;;;;2.05;1.60;;;;;;;;;;6122164;23;20075;-82
2024/01/21 04:33:55;;;;;;;3.22;1.70;;;;;;;;;;6120036;23;20017;-82
2024/01/21 04:36:22;;;;;;;1.88;1.60;;;;;;;;;;6122567;23;20044;-82
2024/01/21 04:38:50;;;;;;;2.17;1.40;;;;;;;;;;6119496;23;20056;-82
2024/01/21 04:41:17;;;;;;;2.05;1.40;;;;;;;;;;6097826;23;20016;-82
2024/01/21 04:43:44;;;;;;;2.30;1.67;;;;;;;;;;6118348;23;20020;-82
2024/01/21 04:46:11;;;;;;;4.13;1.50;;;;;;;;;;6098198;23;20052;-82
2024/01/21 04:48:38;;;;;;;2.22;1.50;;;;;;;;;;6092658;23;20025;-83
2024/01/21 04:51:05;;;;;;;2.40;1.60;;;;;;;;;;6099305;23;20024;-82
2024/01/21 04:53:35;;;;;;;2.40;1.42;;;;;;;;;;6099585;23;20021;-82
2024/01/21 04:56:02;;;;;;;2.20;1.50;;;;;;;;;;6101084;23;20017;-82
2024/01/21 04:58:29;;;;;;;1.40;1.27;;;;;;;;;;6123966;23;20032;-82
2024/01/21 05:00:57;;;;;;;2.42;1.70;;;;;;;;;;6097085;23;20179;-82
2024/01/21 05:03:24;;;;;;;2.10;1.37;;;;;;;;;;6147061;23;20025;-82
2024/01/21 05:05:51;;;;;;;2.60;1.50;;;;;;;;;;6096903;23;20048;-82
2024/01/21 05:08:17;;;;;;;2.47;1.65;;;;;;;;;;6099626;23;20104;-82
2024/01/21 05:10:44;;;;;;;2.13;1.50;;;;;;;;;;6096209;23;20021;-82
2024/01/21 05:13:11;;;;;;;1.95;1.30;;;;;;;;;;6123380;23;20013;-82
2024/01/21 05:15:39;;;;;;;2.50;1.85;;;;;;;;;;6121440;23;20021;-82
2024/01/21 05:18:06;;;;;;;2.08;1.35;;;;;;;;;;6123219;23;20048;-82
2024/01/21 05:20:33;;;;;;;1.70;1.35;;;;;;;;;;6101836;23;20414;-82
2024/01/21 05:23:01;;;;;;;1.73;1.35;;;;;;;;;;6124400;23;20103;-82
2024/01/21 05:25:28;;;;;;;2.57;1.70;;;;;;;;;;6123382;23;20017;-82
2024/01/21 05:27:56;;;;;;;2.22;1.45;;;;;;;;;;6097828;23;20463;-82
2024/01/21 05:30:24;;;;;;;2.33;1.60;;;;;;;;;;6123564;23;20067;-82
2024/01/21 05:32:51;;;;;;;1.77;1.67;;;;;;;;;;6146321;23;20020;-82
2024/01/21 05:35:22;;;;;;;2.63;1.50;;;;;;;;;;6147953;23;20016;-82
2024/01/21 05:37:49;;;;;;;2.22;1.63;;;;;;;;;;6097362;23;20025;-82
2024/01/21 05:40:17;;;;;;;2.33;1.58;;;;;;;;;;6100098;23;20020;-82
2024/01/21 05:42:44;;;;;;;2.20;1.73;;;;;;;;;;6096006;23;20061;-82
2024/01/21 05:45:11;;;;;;;2.17;1.60;;;;;;;;;;6148805;23;20492;-82
2024/01/21 05:47:38;;;;;;;2.30;1.70;;;;;;;;;;6096347;23;20027;-82
2024/01/21 05:50:06;;;;;;;3.97;2.00;;;;;;;;;;6148327;23;20312;-82
2024/01/21 05:52:36;;;;;;;5.57;2.00;;;;;;;;;;6174355;23;20013;-82
2024/01/21 05:55:04;;;;;;;2.88;2.03;;;;;;;;;;6174867;23;20052;-82
2024/01/21 05:57:32;;;;;;;2.80;1.92;;;;;;;;;;6123405;23;20389;-83
2024/01/21 05:59:59;;;;;;;3.55;1.95;;;;;;;;;;6122667;23;20398;-83
2024/01/21 06:02:26;;;;;;;3.50;1.90;;;;;;;;;;6175291;23;20681;-82
2024/01/21 06:04:53;;;;;;;3.42;2.05;;;;;;;;;;6097222;23;20529;-83
2024/01/21 06:07:22;;;;;;;2.85;1.90;;;;;;;;;;6174307;23;20468;-82
2024/01/21 06:09:49;;;;;;;;;;;;;;;;;;6173005;23;20025;-83
2024/01/21 06:12:16;;;;;;;3.50;2.35;;;;;;;;;;6147714;23;19929;-82
2024/01/21 06:14:46;;;;;;;3.92;2.67;;;;;;;;;;6121091;23;20096;-82
2024/01/21 06:17:13;;;;;;;3.30;2.15;;;;;;;;;;6123616;23;20023;-82
2024/01/21 06:19:40;;;;;;;5.10;2.38;;;;;;;;;;6119849;23;20013;-83
2024/01/21 06:22:08;;;;;;;3.53;2.50;;;;;;;;;;6124676;23;20476;-82
2024/01/21 06:24:36;;;;;;;3.50;2.53;;;;;;;;;;6122924;23;20017;-83
2024/01/21 06:27:04;;;;;;;3.93;2.40;;;;;;;;;;6125126;23;20442;-83
2024/01/21 06:29:31;;;;;;;3.45;2.45;;;;;;;;;;6150082;23;20257;-82
2024/01/21 06:31:58;;;;;;;3.92;2.42;;;;;;;;;;6124215;23;20021;-82
2024/01/21 06:34:25;;;;;;;3.55;2.33;;;;;;;;;;6100611;23;20338;-82
2024/01/21 06:36:53;;;;;;;4.18;2.80;;;;;;;;;;6122130;23;20876;-83
2024/01/21 06:39:20;;;;;;;3.83;2.40;;;;;;;;;;6173579;23;20024;-82
2024/01/21 06:41:47;;;;;;;5.40;2.42;;;;;;;;;;6172167;23;20324;-83
2024/01/21 06:44:15;;;;;;;4.18;2.60;;;;;;;;;;6148531;23;20412;-82
2024/01/21 06:46:41;;;;;;;5.05;2.85;;;;;;;;;;6121763;23;20026;-83
2024/01/21 06:49:08;;;;;;;4.82;3.13;;;;;;;;;;6123027;23;20414;-83
2024/01/21 06:51:43;;;;;;;5.47;2.65;;;;;;;;;;6096852;23;20067;-83
2024/01/21 06:54:12;;;;;;;3.50;2.70;;;;;;;;;;6125256;23;20021;-82
2024/01/21 06:56:39;;;;;;;6.28;3.38;;;;;;;;;;6145428;23;20072;-83
2024/01/21 06:59:07;;;;;;;7.25;3.55;;;;;;;;;;6097543;23;20044;-82
2024/01/21 07:01:34;;;;;;;5.87;2.80;;;;;;;;;;6146432;23;20051;-83
2024/01/21 07:04:01;;;;;;;7.43;3.03;;;;;;;;;;6175168;23;20636;-82
2024/01/21 07:06:28;;;;;;;5.82;3.55;;;;;;;;;;6123743;23;20032;-82
2024/01/21 07:08:56;;;;;;;4.70;3.20;;;;;;;;;;6096964;23;20070;-83
2024/01/21 07:11:23;;;;;;;5.40;3.30;;;;;;;;;;6146813;23;20020;-83
2024/01/21 07:13:52;;;;;;;6.30;3.20;;;;;;;;;;6120674;23;20071;-83
2024/01/21 07:16:19;;;;;;;;;;;;;;;;;;6147945;23;20063;-82
2024/01/21 07:18:47;;;;;;;5.05;3.53;;;;;;;;;;6144579;23;19935;-83
2024/01/21 07:21:14;;;;;;;5.53;3.92;;;;;;;;;;6122788;23;20429;-82
2024/01/21 07:23:42;;;;;;;6.97;3.55;;;;;;;;;;6119711;23;20021;-82
2024/01/21 07:26:09;;;;;;;5.20;3.72;;;;;;;;;;6124737;23;20040;-82
2024/01/21 07:28:36;;;;;;;7.80;4.55;;;;;;;;;;6146448;23;20340;-82
2024/01/21 07:31:04;;;;;;;5.97;3.53;;;;;;;;;;6099621;23;20024;-83
2024/01/21 07:33:31;;;;;;;8.10;4.32;;;;;;;;;;6123643;23;20090;-82
2024/01/21 07:36:00;;;;;;;5.05;3.50;;;;;;;;;;6097968;23;20052;-83
2024/01/21 07:38:27;;;;;;;6.90;3.45;;;;;;;;;;6097879;23;20020;-83
2024/01/21 07:40:54;;;;;;;6.05;3.40;;;;;;;;;;6094785;23;20032;-82
2024/01/21 07:43:22;;;;;;;7.20;3.70;;;;;;;;;;6081300;23;20018;-82
2024/01/21 07:45:50;;;;;;;7.28;3.95;;;;;;;;;;6086433;23;20032;-82
2024/01/21 07:48:18;;;;;;;6.22;4.35;;;;;;;;;;6085649;23;20029;-82
2024/01/21 07:50:45;;;;;;;8.55;4.93;;;;;;;;;;6064079;23;20022;-83
2024/01/21 07:53:13;;;;;;;7.30;4.20;;;;;;;;;;6064621;23;20025;-82
2024/01/21 07:55:40;;;;;;;4.53;3.28;;;;;;;;;;6060600;23;20125;-82
2024/01/21 07:58:07;;;;;;;6.00;3.90;;;;;;;;;;6088151;23;20014;-82
2024/01/21 08:00:35;;;;;;;6.22;3.92;;;;;;;;;;6063310;23;20018;-82
2024/01/21 08:03:02;;;;;;;8.60;4.30;;;;;;;;;;6088244;23;20022;-84
2024/01/21 08:05:31;;;;;;;6.83;3.97;;;;;;;;;;6063432;23;20029;-83
2024/01/21 08:07:58;;;;;;;8.50;4.38;;;;;;;;;;6084758;23;20723;-83
2024/01/21 08:10:25;;;;;;;8.57;4.15;;;;;;;;;;6112014;23;20097;-84
2024/01/21 08:12:53;;;;;;;7.10;4.30;;;;;;;;;;6110925;23;20026;-83
2024/01/21 08:15:20;;;;;;;6.35;4.13;;;;;;;;;;6111675;23;20447;-84
2024/01/21 08:17:47;;;;;;;6.15;3.60;;;;;;;;;;6110773;23;20148;-83
2024/01/21 08:20:14;;;;;;;7.75;4.28;;;;;;;;;;6087850;23;20020;-84
2024/01/21 08:22:43;;;;;;;7.67;4.63;;;;;;;;;;6110689;23;20499;-84
2024/01/21 08:25:10;;;;;;;;;;;;;;;;;;6116077;23;20010;-84
2024/01/21 08:27:37;;;;;;;8.50;4.95;;;;;;;;;;6113040;23;19917;-84
2024/01/21 08:30:05;;;;;;;6.18;4.32;;;;;;;;;;6117793;23;20021;-84
2024/01/21 08:32:34;;;;;;;6.88;5.03;;;;;;;;;;6065238;23;20499;-84
2024/01/21 08:35:01;;;;;;;7.72;5.20;;;;;;;;;;6089677;23;20038;-84
2024/01/21 08:37:28;;;;;;;9.20;5.03;;;;;;;;;;6113166;23;20022;-84
2024/01/21 08:39:55;;;;;;;7.35;5.28;;;;;;;;;;6112860;23;20915;-83
2024/01/21 08:42:23;;;;;;;7.60;5.05;;;;;;;;;;6065945;23;20339;-84
2024/01/21 08:44:52;;;;;;;7.05;4.95;;;;;;;;;;6119979;23;20025;-84
2024/01/21 08:47:19;;;;;;;7.32;5.10;;;;;;;;;;6099460;23;20027;-83
2024/01/21 08:49:47;;;;;;;7.93;5.10;;;;;;;;;;6124004;23;20024;-83
2024/01/21 08:52:14;;;;;;;7.28;5.20;;;;;;;;;;6123778;23;20331;-84
2024/01/21 08:54:41;;;;;;;7.38;5.22;;;;;;;;;;6147515;23;20012;-83
2024/01/21 08:57:08;;;;;;;8.02;5.07;;;;;;;;;;6097069;23;20563;-85
2024/01/21 08:59:35;;;;;;;6.80;4.70;;;;;;;;;;6119871;23;20079;-83
2024/01/21 09:02:03;;;;;;;7.57;5.13;;;;;;;;;;6100064;23;20024;-83
2024/01/21 09:04:30;;;;;;;8.13;4.60;;;;;;;;;;6123179;23;20024;-84
2024/01/21 09:06:57;;;;;;;6.65;5.07;;;;;;;;;;6095189;23;20342;-83
2024/01/21 09:09:25;;;;;;;9.98;4.95;;;;;;;;;;6122266;23;20100;-83
2024/01/21 09:11:54;;;;;;;8.20;4.97;;;;;;;;;;6094346;23;20025;-83
2024/01/21 09:14:22;;;;;;;8.98;5.22;;;;;;;;;;6123832;23;20382;-83
2024/01/21 09:16:49;;;;;;;7.95;4.72;;;;;;;;;;6120595;23;20544;-83
2024/01/21 09:19:17;;;;;;;8.85;5.57;;;;;;;;;;6098686;23;20016;-83
2024/01/21 09:21:44;;;;;;;8.80;5.60;;;;;;;;;;6096128;23;20659;-83
2024/01/21 09:24:14;;;;;;;8.07;5.30;;;;;;;;;;6123043;23;20105;-83
2024/01/21 09:26:42;;;;;;;9.55;5.53;;;;;;;;;;6094930;23;20021;-83
2024/01/21 09:29:09;;;;;;;6.43;4.80;;;;;;;;;;6147137;23;20060;-83
2024/01/21 09:31:36;;;;;;;9.43;5.25;;;;;;;;;;6171172;23;20342;-83
2024/01/21 09:34:03;;;;;;;5.88;4.72;;;;;;;;;;6173860;23;20021;-83
2024/01/21 09:36:31;;;;;;;7.28;4.90;;;;;;;;;;6145158;23;20013;-83
2024/01/21 09:38:58;;;;;;;8.93;5.53;;;;;;;;;;6145621;23;20024;-84
2024/01/21 09:41:34;;;;;;;8.27;4.55;;;;;;;;;;6146535;23;20025;-83
2024/01/21 09:44:01;;;;;;;7.47;4.85;;;;;;;;;;6121251;23;20014;-83
2024/01/21 09:46:28;;;;;;;7.00;4.10;;;;;;;;;;6144866;23;20124;-83
2024/01/21 09:48:56;;;;;;;5.35;4.28;;;;;;;;;;6121349;23;20013;-83
2024/01/21 09:51:23;;;;;;;6.90;4.00;;;;;;;;;;6148809;23;20027;-83
2024/01/21 09:53:52;;;;;;;7.60;4.43;;;;;;;;;;6172574;23;20386;-84
2024/01/21 09:56:19;;;;;;;;;;;;;;;;;;6123110;23;20025;-84
2024/01/21 09:58:51;;;;;;;6.93;4.63;;;;;;;;;;6120551;23;19951;-84
2024/01/21 10:01:20;;;;;;;7.70;5.07;;;;;;;;;;6144600;23;20017;-84
2024/01/21 10:03:47;;;;;;;8.57;4.40;;;;;;;;;;6095132;23;20032;-83
2024/01/21 10:06:16;;;;;;;8.60;4.53;;;;;;;;;;6147353;23;20113;-83
2024/01/21 10:08:43;;;;;;;7.35;4.20;;;;;;;;;;6170777;23;20025;-83
2024/01/21 10:11:11;;;;;;;6.30;4.30;;;;;;;;;;6170131;23;20017;-83
2024/01/21 10:13:42;;;;;;;7.70;4.63;;;;;;;;;;6144779;23;20041;-84
2024/01/21 10:16:12;;;;;;;7.28;4.88;;;;;;;;;;6122149;23;20032;-83
2024/01/21 10:18:39;;;;;;;6.22;4.25;;;;;;;;;;6121150;23;20350;-83
2024/01/21 10:21:08;;;;;;;9.00;4.53;;;;;;;;;;6145364;23;20067;-84
2024/01/21 10:23:35;;;;;;;6.70;4.13;;;;;;;;;;6169698;23;20024;-83
2024/01/21 10:26:02;;;;;;;6.47;4.30;;;;;;;;;;6170220;23;20120;-84
2024/01/21 10:28:32;;;;;;;6.32;4.53;;;;;;;;;;6170524;23;20020;-84
2024/01/21 10:31:00;;;;;;;7.70;4.88;;;;;;;;;;6172408;23;20120;-84
2024/01/21 10:33:27;;;;;;;10.25;4.50;;;;;;;;;;6121097;23;20014;-84
2024/01/21 10:35:56;;;;;;;5.15;3.85;;;;;;;;;;6118475;23;20012;-84
2024/01/21 10:38:23;;;;;;;;;;;;;;;;;;6122929;23;20052;-84
2024/01/21 10:40:52;;;;;;;8.20;4.82;;;;;;;;;;6119276;23;19939;-84
2024/01/21 10:43:19;;;;;;;6.90;4.50;;;;;;;;;;6145999;23;20027;-84
2024/01/21 10:45:46;;;;;;;7.15;4.50;;;;;;;;;;6169919;23;20025;-84
2024/01/21 10:48:19;;;;;;;10.60;4.80;;;;;;;;;;6172865;23;20049;-84
2024/01/21 10:50:46;;;;;;;6.22;4.43;;;;;;;;;;6142896;23;20017;-85
2024/01/21 10:53:16;;;;;;;7.45;4.95;;;;;;;;;;6096282;23;20084;-84
2024/01/21 10:55:44;;;;;;;7.25;4.78;;;;;;;;;;6141866;23;20068;-84
2024/01/21 10:58:11;;;;;;;7.45;4.25;;;;;;;;;;6121520;23;20017;-84
2024/01/21 11:00:38;;;;;;;9.00;5.03;;;;;;;;;;6172854;23;20032;-85
2024/01/21 11:03:33;;;;;;;8.00;4.72;;;;;;;;;;6096726;23;20017;-84
2024/01/21 11:06:03;;;;;;;7.88;4.50;;;;;;;;;;6142184;23;20021;-85
2024/01/21 11:08:31;;;;;;;6.57;4.45;;;;;;;;;;6095205;23;20048;-85
2024/01/21 11:11:12;;;;;;;7.90;5.07;;;;;;;;;;6119558;23;20019;-85
2024/01/21 11:13:52;;;;;;;6.82;4.28;;;;;;;;;;6120026;23;20327;-85
2024/01/21 11:16:30;;;;;;;8.73;4.57;;;;;;;;;;6123236;23;20060;-85
2024/01/21 11:19:11;;;;;;;7.45;4.70;;;;;;;;;;6140946;23;20019;-84
2024/01/21 11:21:42;;;;;;;7.40;5.03;;;;;;;;;;6093558;23;20025;-86
2024/01/21 11:24:13;;;;;;;8.60;5.13;;;;;;;;;;6117996;23;20124;-86
2024/01/21 11:26:46;;;;;;;7.70;4.63;;;;;;;;;;6116711;23;20021;-86
2024/01/21 11:29:25;;;;;;;7.50;4.68;;;;;;;;;;6119693;23;20920;-85
2024/01/21 11:31:52;;;;;;;6.60;4.72;;;;;;;;;;6140717;23;20127;-85
2024/01/21 11:34:21;;;;;;;8.82;4.78;;;;;;;;;;6118755;23;20029;-86
2024/01/21 11:36:49;;;;;;;9.52;5.45;;;;;;;;;;6117033;23;20027;-86
2024/01/21 11:39:19;;;;;;;6.05;4.78;;;;;;;;;;6096347;23;20061;-85
2024/01/21 11:41:46;;;;;;;6.85;4.30;;;;;;;;;;6141750;23;20056;-86
2024/01/21 11:44:16;;;;;;;8.13;4.97;;;;;;;;;;6094559;23;20350;-86
2024/01/21 11:54:24;;;;;;;;;;;;;;;;;;;;;
2024/01/21 12:04:24;;;;;;;6.78;5.03;;;;;;;;;;6032965;23;20023;-85
2024/01/21 12:08:07;;;;;;;;;;;;;;;;;;;;;
2024/01/21 12:17:40;;;;;;;;;;;;;;;;;;;;;
2024/01/21 12:24:18;;;;;;;;;;;;;;;;;;;;;
2024/01/21 12:44:39;;;;;;;8.13;5.35;;;;;;;;;;5867254;24;20108;-86
2024/01/21 12:48:10;;;;;;;;;;;;;;;;;;;;;
2024/01/21 12:55:16;;;;;;;9.32;5.75;;;;;;;;;;5864334;24;20409;-86
2024/01/21 12:58:31;;;;;;;7.63;5.28;;;;;;;;;;5835023;24;20049;-86
2024/01/21 13:01:22;;;;;;;8.07;5.10;;;;;;;;;;5855463;24;20041;-85
2024/01/21 13:03:56;;;;;;;;;;;;;;;;;;5825195;24;20025;-85
2024/01/21 13:06:47;;;;;;;8.43;6.18;;;;;;;;;;5916880;23;20362;-85
2024/01/21 13:09:38;;;;;;;11.70;6.97;;;;;;;;;;5974984;23;20023;-85
2024/01/21 13:12:46;;;;;;;11.48;6.97;;;;;;;;;;5995588;23;20038;-85
2024/01/21 13:15:51;;;;;;;8.50;6.78;;;;;;;;;;6047000;23;20401;-85
2024/01/21 13:18:41;;;;;;;10.25;5.97;;;;;;;;;;6035713;23;20022;-86
2024/01/21 13:21:21;;;;;;;10.13;6.90;;;;;;;;;;6056538;23;20085;-86
2024/01/21 13:24:08;;;;;;;;;;;;;;;;;;;;;
2024/01/21 13:33:12;;;;;;;10.25;5.78;;;;;;;;;;6145421;23;20037;-84
2024/01/21 13:48:42;;;;;;;13.18;6.30;;;;;;;;;;5977703;23;20038;-86
2024/01/21 13:52:13;;;;;;;10.55;5.70;;;;;;;;;;5902763;24;20081;-85
2024/01/21 13:54:57;;;;;;;;;;;;;;;;;;;;;
2024/01/21 13:58:09;;;;;;;;;;;;;;;;;;;;;
2024/01/21 14:11:17;;;;;;;;;;;;;;;;;;;;;
2024/01/21 14:31:41;;;;;;;11.05;5.35;;;;;;;;;;5830454;24;20030;-87
2024/01/21 15:58:40;;;;;;;;;;;;;;;;;;;;;
2024/01/21 16:18:45;;;;;;;;;;;;;;;;;;;;;
2024/01/21 16:35:08;;;;;;;12.95;7.25;;;;;;;;;;5939964;24;20020;-84
2024/01/21 16:42:21;;;;;;;14.75;7.60;;;;;;;;;;5860997;24;20394;-83
2024/01/21 16:45:26;;;;;;;10.15;6.85;;;;;;;;;;5822490;24;20487;-84
2024/01/21 16:51:31;;;;;;;12.63;7.07;;;;;;;;;;5799881;24;20042;-84
2024/01/21 17:05:14;;;;;;;13.23;8.65;;;;;;;;;;5808150;24;20030;-84
2024/01/21 17:08:22;;;;;;;;;;;;;;;;;;;;;
2024/01/21 17:19:08;;;;;;;;;;;;;;;;;;;;;
2024/01/21 17:22:27;;;;;;;17.42;8.00;;;;;;;;;;5855594;24;20034;-83
2024/01/21 17:45:58;;;;;;;;;;;;;;;;;;;;;
2024/01/21 17:49:03;;;;;;;14.45;8.48;;;;;;;;;;5811176;24;20295;-83
2024/01/21 17:58:16;;;;;;;;;;;;;;;;;;;;;
2024/01/21 18:05:00;;;;;;;;;;;;;;;;;;;;;
2024/01/21 18:11:38;;;;;;;17.92;8.65;;;;;;;;;;5804836;24;20035;-84
2024/01/21 18:15:20;;;;;;;;;;;;;;;;;;;;;
2024/01/21 18:18:30;;;;;;;;;;;;;;;;;;;;;
2024/01/21 18:40:36;;;;;;;15.55;8.98;;;;;;;;;;5804388;24;20381;-84
2024/01/21 18:43:48;;;;;;;15.02;7.88;;;;;;;;;;5840496;24;20079;-84
2024/01/21 18:53:20;;;;;;;;;;;;;;;;;;;;;
2024/01/21 18:59:41;;;;;;;13.73;8.35;;;;;;;;;;5878672;24;20043;-83
2024/01/21 19:02:47;;;;;;;19.58;9.07;;;;;;;;;;5889290;24;20061;-86
2024/01/21 19:05:34;;;;;;;14.63;7.60;;;;;;;;;;5874750;24;20057;-84
2024/01/21 19:12:10;;;;;;;;;;;;;;;;;;;;;
2024/01/21 19:18:23;;;;;;;14.23;7.63;;;;;;;;;;5990859;23;20029;-83
2024/01/21 19:21:44;;;;;;;;;;;;;;;;;;;;;
2024/01/21 19:28:48;;;;;;;13.93;8.15;;;;;;;;;;5971601;23;20103;-84
2024/01/21 19:32:05;;;;;;;16.88;7.60;;;;;;;;;;6049130;23;20023;-83
2024/01/21 19:35:39;;;;;;;;;;;;;;;;;;;;;
2024/01/21 19:38:11;;;;;;;19.35;10.43;;;;;;;;;;6048683;23;19929;-83
2024/01/21 19:41:17;;;;;;;;;;;;;;;;;;;;;
2024/01/21 19:47:26;;;;;;;19.35;11.32;;;;;;;;;;6026674;23;20608;-83
2024/01/21 20:08:09;;;;;;;14.73;8.77;;;;;;;;;;5729510;24;20090;-83
2024/01/21 20:11:06;;;;;;;11.95;7.88;;;;;;;;;;5827337;24;20502;-84
2024/01/21 20:14:00;;;;;;;10.35;7.68;;;;;;;;;;5863868;24;20075;-83
2024/01/21 20:16:54;;;;;;;;;;;;;;;;;;;;;
2024/01/21 20:19:27;;;;;;;13.48;8.38;;;;;;;;;;5899843;24;20024;-84
2024/01/21 20:22:00;;;;;;;13.23;7.93;;;;;;;;;;5871751;24;20033;-83
2024/01/21 20:24:29;;;;;;;12.32;7.45;;;;;;;;;;5897655;24;20301;-83
2024/01/21 20:26:57;;;;;;;9.18;7.22;;;;;;;;;;5876770;24;20121;-83
2024/01/21 20:29:34;;;;;;;14.73;8.00;;;;;;;;;;5875920;24;20032;-83
2024/01/21 20:32:02;;;;;;;10.73;6.90;;;;;;;;;;5901002;24;20054;-83
2024/01/21 20:37:37;;;;;;;9.77;6.40;;;;;;;;;;6030774;23;20037;-83
2024/01/21 20:40:08;;;;;;;9.10;6.05;;;;;;;;;;6010129;23;20025;-83
2024/01/21 20:42:52;;;;;;;;;;;;;;;;;;;;;
2024/01/21 20:46:02;;;;;;;9.00;6.20;;;;;;;;;;6043337;23;20558;-83
2024/01/21 20:49:11;;;;;;;;;;;;;;;;;;;;;
2024/01/21 20:58:51;;;;;;;11.23;6.05;;;;;;;;;;6091032;23;20485;-83
2024/01/21 21:05:29;;;;;;;;;;;;;;;;;;;;;
2024/01/21 21:18:53;;;;;;;;;;;;;;;;;;;;;
2024/01/21 21:28:59;;;;;;;;;;;;;;;;;;;;;
2024/01/21 21:32:23;;;;;;;13.13;6.05;;;;;;;;;;5866413;24;20426;-83
2024/01/21 21:35:18;;;;;;;7.93;5.43;;;;;;;;;;5849667;24;20219;-84
2024/01/21 21:37:55;;;;;;;11.20;5.88;;;;;;;;;;5921654;24;20036;-83
2024/01/21 21:40:33;;;;;;;13.48;5.72;;;;;;;;;;5914401;24;20028;-83
2024/01/21 21:43:07;;;;;;;12.40;6.30;;;;;;;;;;5914850;24;20402;-83
2024/01/21 21:45:47;;;;;;;;;;;;;;;;;;;;;
2024/01/21 21:48:18;;;;;;;14.80;6.15;;;;;;;;;;5975356;23;20062;-84
2024/01/21 21:50:57;;;;;;;13.32;7.20;;;;;;;;;;5971762;23;20548;-84
2024/01/21 21:53:42;;;;;;;11.38;6.20;;;;;;;;;;5976177;23;20027;-83
2024/01/21 21:56:27;;;;;;;12.13;6.10;;;;;;;;;;6159705;23;20326;-84